createdAt,value
2022-11-03T00:01:55.585Z,1.87
2022-11-03T00:04:22.905Z,1.86
2022-11-03T00:06:51.367Z,1.86
2022-11-03T00:09:18.810Z,1.86
2022-11-03T00:11:46.848Z,1.83
2022-11-03T00:14:14.695Z,1.78
2022-11-03T00:16:41.147Z,1.75
2022-11-03T00:19:08.410Z,1.72
2022-11-03T00:21:34.680Z,1.73
2022-11-03T00:24:02.853Z,1.67
2022-11-03T00:26:31.288Z,1.65
2022-11-03T00:29:02.616Z,1.62
2022-11-03T00:31:34.797Z,1.58
2022-11-03T00:34:02.230Z,1.56
2022-11-03T00:36:30.869Z,1.54
2022-11-03T00:38:57.363Z,1.56
2022-11-03T00:41:24.437Z,1.50
2022-11-03T00:43:51.561Z,1.51
2022-11-03T00:46:19.251Z,1.49
2022-11-03T00:48:45.366Z,1.47
2022-11-03T00:51:23.351Z,1.43
2022-11-03T00:53:58.339Z,1.42
2022-11-03T00:56:33.366Z,1.42
2022-11-03T00:59:01.626Z,1.38
2022-11-03T01:01:33.126Z,1.35
2022-11-03T01:04:18.115Z,1.30
2022-11-03T01:06:50.257Z,1.26
2022-11-03T01:09:22.164Z,1.27
2022-11-03T01:12:11.444Z,1.25
2022-11-03T01:14:52.041Z,1.25
2022-11-03T01:17:26.511Z,1.25
2022-11-03T01:19:53.354Z,1.22
2022-11-03T01:22:20.046Z,1.22
2022-11-03T01:24:47.049Z,1.20
2022-11-03T01:27:16.143Z,1.18
2022-11-03T01:29:42.406Z,1.18
2022-11-03T01:32:09.111Z,1.18
2022-11-03T01:34:35.539Z,1.16
2022-11-03T01:37:01.967Z,1.16
2022-11-03T01:39:28.344Z,1.13
2022-11-03T01:41:54.641Z,1.13
2022-11-03T01:44:26.694Z,1.12
2022-11-03T01:47:25.200Z,1.09
2022-11-03T01:49:58.180Z,1.05
2022-11-03T01:52:54.753Z,1.06
2022-11-03T01:55:24.788Z,1.02
2022-11-03T01:57:55.972Z,1.05
2022-11-03T02:00:22.167Z,1.06
2022-11-03T02:02:48.442Z,1.02
2022-11-03T02:05:19.703Z,1.01
2022-11-03T02:07:57.007Z,0.94
2022-11-03T02:10:24.041Z,0.94
2022-11-03T02:12:50.237Z,0.96
2022-11-03T02:15:19.272Z,0.94
2022-11-03T02:17:47.924Z,0.90
2022-11-03T02:20:19.653Z,0.87
2022-11-03T02:22:51.553Z,0.89
2022-11-03T02:25:37.834Z,0.90
2022-11-03T02:28:05.825Z,0.91
2022-11-03T02:30:39.042Z,0.92
2022-11-03T02:33:18.545Z,0.91
2022-11-03T02:36:05.369Z,0.87
2022-11-03T02:38:36.362Z,0.86
2022-11-03T02:41:07.678Z,0.87
2022-11-03T02:43:34.726Z,0.84
2022-11-03T02:46:04.636Z,0.83
2022-11-03T02:48:30.823Z,0.84
2022-11-03T02:50:56.984Z,0.82
2022-11-03T02:53:23.110Z,0.84
2022-11-03T02:56:01.652Z,0.87
2022-11-03T02:58:38.581Z,0.88
2022-11-03T03:01:48.439Z,0.89
2022-11-03T03:04:24.482Z,0.91
2022-11-03T03:07:04.756Z,0.96
2022-11-03T03:09:37.370Z,1.01
2022-11-03T03:12:05.269Z,1.03
2022-11-03T03:14:37.128Z,1.05
2022-11-03T03:17:13.602Z,1.07
2022-11-03T03:19:56.651Z,1.08
2022-11-03T03:22:45.815Z,1.10
2022-11-03T03:25:17.955Z,1.15
2022-11-03T03:27:49.472Z,1.22
2022-11-03T03:30:17.429Z,1.24
2022-11-03T03:32:47.518Z,1.26
2022-11-03T03:35:21.148Z,1.29
2022-11-03T03:37:51.072Z,1.32
2022-11-03T03:40:23.304Z,1.35
2022-11-03T03:42:51.743Z,1.37
2022-11-03T03:45:19.513Z,1.41
2022-11-03T03:47:46.830Z,1.46
2022-11-03T03:50:13.240Z,1.49
2022-11-03T03:52:39.434Z,1.54
2022-11-03T03:55:12.522Z,1.59
2022-11-03T03:57:38.654Z,1.65
2022-11-03T04:00:06.381Z,1.70
2022-11-03T04:02:38.520Z,1.77
2022-11-03T04:05:05.112Z,1.84
2022-11-03T04:07:49.823Z,1.90
2022-11-03T04:10:21.742Z,1.96
2022-11-03T04:13:07.016Z,2.01
2022-11-03T04:15:51.955Z,2.05
2022-11-03T04:18:40.500Z,2.14
2022-11-03T04:21:25.627Z,2.17
2022-11-03T04:23:53.253Z,2.21
2022-11-03T04:26:23.076Z,2.23
2022-11-03T04:28:50.625Z,2.24
2022-11-03T04:31:18.103Z,2.19
2022-11-03T04:33:44.918Z,2.17
2022-11-03T04:36:19.443Z,2.15
2022-11-03T04:38:46.005Z,2.10
2022-11-03T04:41:21.407Z,2.09
2022-11-03T04:43:48.220Z,2.08
2022-11-03T04:46:17.916Z,2.09
2022-11-03T04:48:44.683Z,2.09
2022-11-03T04:51:17.167Z,2.05
2022-11-03T04:54:18.679Z,2.00
2022-11-03T04:56:44.846Z,1.96
2022-11-03T04:59:12.943Z,1.94
2022-11-03T05:01:39.147Z,1.91
2022-11-03T05:04:12.597Z,1.89
2022-11-03T05:06:38.758Z,1.88
2022-11-03T05:09:17.958Z,1.87
2022-11-03T05:11:46.143Z,1.89
2022-11-03T05:14:18.820Z,1.87
2022-11-03T05:16:45.265Z,1.82
2022-11-03T05:19:22.653Z,1.80
2022-11-03T05:21:50.581Z,1.80
2022-11-03T05:24:21.188Z,1.80
2022-11-03T05:26:48.463Z,1.79
2022-11-03T05:29:18.823Z,1.82
2022-11-03T05:31:47.983Z,1.83
2022-11-03T05:34:36.296Z,1.77
2022-11-03T05:37:26.848Z,1.75
2022-11-03T05:39:56.859Z,1.74
2022-11-03T05:42:22.900Z,1.74
2022-11-03T05:44:51.722Z,1.74
2022-11-03T05:47:24.468Z,1.72
2022-11-03T05:49:56.527Z,1.71
2022-11-03T05:52:25.328Z,1.68
2022-11-03T05:54:53.501Z,1.70
2022-11-03T05:57:20.210Z,1.68
2022-11-03T05:59:49.094Z,1.70
2022-11-03T06:02:38.507Z,1.76
2022-11-03T06:05:20.065Z,1.78
2022-11-03T06:07:47.432Z,1.87
2022-11-03T06:10:31.356Z,1.94
2022-11-03T06:13:04.821Z,1.97
2022-11-03T06:15:34.206Z,2.02
2022-11-03T06:18:02.889Z,2.12
2022-11-03T06:20:29.220Z,2.21
2022-11-03T06:22:57.459Z,2.26
2022-11-03T06:25:32.822Z,2.30
2022-11-03T06:28:06.581Z,2.36
2022-11-03T06:30:36.043Z,2.45
2022-11-03T06:33:11.091Z,2.53
2022-11-03T06:35:37.231Z,2.55
2022-11-03T06:38:03.344Z,2.56
2022-11-03T06:40:34.126Z,2.62
2022-11-03T06:43:08.763Z,2.63
2022-11-03T06:45:35.029Z,2.68
2022-11-03T06:48:02.775Z,2.70
2022-11-03T06:50:31.742Z,2.76
2022-11-03T06:52:59.580Z,2.82
2022-11-03T06:55:28.308Z,2.82
2022-11-03T06:58:23.528Z,2.80
2022-11-03T07:00:51.692Z,2.80
2022-11-03T07:03:23.141Z,2.80
2022-11-03T07:05:49.307Z,2.82
2022-11-03T07:08:35.324Z,2.85
2022-11-03T07:11:01.408Z,2.91
2022-11-03T07:13:28.498Z,2.98
2022-11-03T07:15:54.696Z,3.05
2022-11-03T07:18:38.833Z,3.05
2022-11-03T07:21:26.001Z,3.14
2022-11-03T07:23:52.449Z,3.20
2022-11-03T07:26:18.760Z,3.28
2022-11-03T07:28:44.872Z,3.38
2022-11-03T07:31:18.928Z,3.46
2022-11-03T07:33:45.525Z,3.60
2022-11-03T07:36:19.714Z,3.71
2022-11-03T07:38:50.565Z,3.80
2022-11-03T07:41:22.191Z,3.90
2022-11-03T07:43:53.818Z,4.02
2022-11-03T07:46:21.551Z,4.16
2022-11-03T07:48:49.349Z,4.30
2022-11-03T07:51:28.653Z,4.41
2022-11-03T07:54:09.377Z,4.52
2022-11-03T07:56:43.310Z,4.65
2022-11-03T07:59:09.401Z,4.79
2022-11-03T08:01:40.580Z,4.92
2022-11-03T08:04:20.025Z,5.06
2022-11-03T08:06:46.357Z,5.19
2022-11-03T08:09:12.865Z,5.29
2022-11-03T08:11:39.542Z,5.45
2022-11-03T08:14:05.657Z,5.57
2022-11-03T08:16:31.809Z,5.66
2022-11-03T08:18:57.930Z,5.79
2022-11-03T08:21:24.180Z,5.95
2022-11-03T08:23:50.882Z,6.08
2022-11-03T08:26:17.003Z,6.18
2022-11-03T08:28:43.127Z,6.27
2022-11-03T08:31:12.681Z,6.37
2022-11-03T08:33:39.659Z,6.43
2022-11-03T08:36:06.099Z,6.48
2022-11-03T08:38:32.450Z,6.55
2022-11-03T08:40:58.844Z,6.61
2022-11-03T08:43:25.155Z,6.63
2022-11-03T08:45:53.757Z,6.71
2022-11-03T08:48:21.040Z,6.81
2022-11-03T08:50:48.102Z,6.90
2022-11-03T08:53:14.226Z,7.04
2022-11-03T08:55:40.336Z,7.14
2022-11-03T08:58:07.257Z,7.30
2022-11-03T09:00:38.305Z,7.40
2022-11-03T09:03:06.798Z,7.54
2022-11-03T09:05:32.942Z,7.63
2022-11-03T09:10:45.927Z,7.78
2022-11-03T09:13:12.030Z,7.84
2022-11-03T09:15:38.169Z,7.92
2022-11-03T09:18:04.594Z,8.00
2022-11-03T09:20:31.679Z,8.09
2022-11-03T09:22:57.951Z,8.15
2022-11-03T09:25:24.077Z,8.20
2022-11-03T09:27:50.185Z,8.26
2022-11-03T09:30:17.788Z,8.36
2022-11-03T09:32:44.553Z,8.46
2022-11-03T09:35:12.005Z,8.55
2022-11-03T09:37:38.109Z,8.66
2022-11-03T09:40:04.555Z,8.75
2022-11-03T09:42:34.403Z,8.86
2022-11-03T09:45:01.601Z,9.00
2022-11-03T09:47:34.179Z,9.05
2022-11-03T09:50:00.965Z,9.12
2022-11-03T09:52:27.275Z,9.24
2022-11-03T09:54:55.673Z,9.36
2022-11-03T09:57:23.039Z,9.50
2022-11-03T09:59:50.793Z,9.57
2022-11-03T10:02:29.846Z,9.62
2022-11-03T10:04:58.115Z,9.67
2022-11-03T10:07:26.819Z,9.73
2022-11-03T10:09:54.715Z,9.85
2022-11-03T10:12:24.061Z,9.97
2022-11-03T10:14:51.071Z,10.06
2022-11-03T10:17:25.911Z,10.16
2022-11-03T10:19:55.660Z,10.29
2022-11-03T10:22:22.403Z,10.37
2022-11-03T10:24:48.995Z,10.51
2022-11-03T10:27:23.582Z,10.60
2022-11-03T10:30:08.210Z,10.73
2022-11-03T10:32:34.925Z,10.84
2022-11-03T10:35:01.150Z,11.04
2022-11-03T10:37:28.383Z,11.15
2022-11-03T10:39:56.789Z,11.32
2022-11-03T10:42:35.036Z,11.44
2022-11-03T10:45:15.620Z,11.58
2022-11-03T10:47:41.747Z,11.67
2022-11-03T10:50:25.795Z,11.73
2022-11-03T10:52:52.409Z,11.88
2022-11-03T10:55:24.862Z,12.02
2022-11-03T10:57:53.375Z,12.08
2022-11-03T11:00:19.927Z,12.17
2022-11-03T11:02:47.766Z,12.25
2022-11-03T11:05:21.628Z,12.33
2022-11-03T11:07:51.324Z,12.42
2022-11-03T11:10:26.916Z,12.51
2022-11-03T11:13:05.385Z,12.54
2022-11-03T11:15:58.064Z,12.69
2022-11-03T11:18:30.390Z,12.78
2022-11-03T11:20:57.440Z,12.87
2022-11-03T11:23:29.443Z,12.97
2022-11-03T11:26:05.931Z,13.06
2022-11-03T11:28:32.116Z,13.16
2022-11-03T11:30:58.946Z,13.23
2022-11-03T11:33:27.612Z,13.26
2022-11-03T11:35:58.773Z,13.19
2022-11-03T11:38:52.292Z,13.25
2022-11-03T11:41:20.850Z,13.18
2022-11-03T11:43:46.973Z,13.13
2022-11-03T11:46:22.326Z,13.17
2022-11-03T11:48:57.231Z,13.27
2022-11-03T11:51:24.716Z,13.29
2022-11-03T11:54:10.008Z,13.36
2022-11-03T11:56:44.163Z,13.41
2022-11-03T11:59:25.675Z,13.46
2022-11-03T12:01:54.945Z,13.51
2022-11-03T12:04:33.202Z,13.52
2022-11-03T12:06:59.610Z,13.55
2022-11-03T12:09:30.521Z,13.56
2022-11-03T12:12:00.795Z,13.60
2022-11-03T12:14:38.458Z,13.55
2022-11-03T12:17:17.172Z,13.57
2022-11-03T12:19:45.009Z,13.59
2022-11-03T12:22:32.212Z,13.60
2022-11-03T12:25:04.767Z,13.58
2022-11-03T12:27:30.813Z,13.54
2022-11-03T12:29:59.594Z,13.55
2022-11-03T12:32:33.452Z,13.56
2022-11-03T12:35:02.076Z,13.49
2022-11-03T12:37:28.239Z,13.42
2022-11-03T12:39:54.341Z,13.30
2022-11-03T12:42:21.211Z,13.24
2022-11-03T12:44:47.341Z,13.23
2022-11-03T12:47:13.485Z,13.24
2022-11-03T12:49:39.624Z,13.18
2022-11-03T12:52:08.240Z,13.06
2022-11-03T12:54:34.625Z,12.98
2022-11-03T12:57:00.898Z,12.83
2022-11-03T12:59:27.025Z,12.79
2022-11-03T13:01:53.241Z,12.78
2022-11-03T13:04:19.445Z,12.77
2022-11-03T13:06:45.856Z,12.71
2022-11-03T13:09:11.993Z,12.73
2022-11-03T13:11:56.814Z,12.75
2022-11-03T13:14:22.987Z,12.81
2022-11-03T13:16:49.098Z,12.87
2022-11-03T13:19:15.603Z,12.94
2022-11-03T13:21:42.376Z,12.99
2022-11-03T13:24:08.492Z,12.84
2022-11-03T13:26:34.701Z,12.88
2022-11-03T13:29:01.020Z,12.83
2022-11-03T13:31:27.240Z,12.82
2022-11-03T13:33:53.377Z,12.74
2022-11-03T13:36:19.563Z,12.72
2022-11-03T13:38:45.910Z,12.69
2022-11-03T13:41:12.061Z,12.59
2022-11-03T13:43:38.174Z,12.53
2022-11-03T13:46:05.283Z,12.45
2022-11-03T13:51:19.072Z,12.30
2022-11-03T13:56:32.121Z,12.25
2022-11-03T14:01:45.088Z,12.11
2022-11-03T14:06:58.126Z,11.92
2022-11-03T14:09:24.992Z,11.95
2022-11-03T14:12:09.959Z,12.01
2022-11-03T14:14:36.088Z,11.89
2022-11-03T14:17:02.218Z,11.81
2022-11-03T14:19:36.468Z,11.81
2022-11-03T14:22:02.868Z,11.86
2022-11-03T14:24:29.000Z,11.81
2022-11-03T14:26:55.122Z,11.73
2022-11-03T14:29:21.281Z,11.68
2022-11-03T14:31:47.409Z,11.64
2022-11-03T14:34:13.567Z,11.61
2022-11-03T14:36:39.715Z,11.57
2022-11-03T14:39:05.896Z,11.50
2022-11-03T14:41:50.746Z,11.47
2022-11-03T14:44:16.862Z,11.37
2022-11-03T14:46:43.029Z,11.29
2022-11-03T14:49:09.264Z,11.20
2022-11-03T14:51:35.670Z,11.08
2022-11-03T14:54:01.789Z,10.94
2022-11-03T14:56:27.910Z,10.82
2022-11-03T14:58:54.041Z,10.71
2022-11-03T15:01:20.873Z,10.58
2022-11-03T15:03:47.356Z,10.45
2022-11-03T15:06:13.807Z,10.29
2022-11-03T15:08:39.901Z,10.15
2022-11-03T15:11:10.645Z,10.04
2022-11-03T15:13:41.723Z,9.92
2022-11-03T15:16:12.108Z,9.79
2022-11-03T15:18:38.208Z,9.68
2022-11-03T15:21:04.938Z,9.59
2022-11-03T15:26:17.147Z,9.35
2022-11-03T15:28:43.249Z,9.22
2022-11-03T15:31:09.421Z,9.12
2022-11-03T15:33:35.516Z,9.02
2022-11-03T15:36:01.785Z,8.93
2022-11-03T15:38:27.934Z,8.81
2022-11-03T15:40:54.039Z,8.72
2022-11-03T15:43:20.159Z,8.62
2022-11-03T15:45:46.262Z,8.53
2022-11-03T15:48:12.741Z,8.39
2022-11-03T15:50:39.430Z,8.31
2022-11-03T15:53:05.545Z,8.22
2022-11-03T15:55:31.663Z,8.15
2022-11-03T15:57:57.771Z,8.07
2022-11-03T16:00:23.912Z,7.99
2022-11-03T16:02:50.225Z,7.93
2022-11-03T16:05:19.771Z,7.85
2022-11-03T16:07:49.989Z,7.79
2022-11-03T16:10:16.160Z,7.70
2022-11-03T16:12:43.998Z,7.66
2022-11-03T16:45:39.835Z,7.43
2022-11-03T16:48:07.070Z,7.44
2022-11-03T16:50:33.878Z,7.44
2022-11-03T16:52:59.983Z,7.46
2022-11-03T16:55:26.166Z,7.45
2022-11-03T16:57:52.255Z,7.47
2022-11-03T17:00:19.905Z,7.47
2022-11-03T17:02:47.069Z,7.48
2022-11-03T17:05:14.231Z,7.48
2022-11-03T17:07:40.315Z,7.50
2022-11-03T17:10:08.120Z,7.50
2022-11-03T17:12:34.246Z,7.50
2022-11-03T17:15:00.384Z,7.55
2022-11-03T17:17:26.539Z,7.57
2022-11-03T17:19:52.643Z,7.62
2022-11-03T17:22:20.292Z,7.66
2022-11-03T17:24:46.385Z,7.66
2022-11-03T17:27:16.640Z,7.68
2022-11-03T17:29:47.908Z,7.68
2022-11-03T17:32:18.603Z,7.68
2022-11-03T17:34:44.701Z,7.63
2022-11-03T17:37:10.923Z,7.65
2022-11-03T17:39:39.118Z,7.62
2022-11-03T17:42:18.020Z,7.59
2022-11-03T17:44:45.791Z,7.54
2022-11-03T17:47:11.904Z,7.55
2022-11-03T17:49:38.133Z,7.56
2022-11-03T17:52:04.771Z,7.58
2022-11-03T17:54:32.015Z,7.56
2022-11-03T17:57:00.241Z,7.63
2022-11-03T17:59:26.537Z,7.66
2022-11-03T18:01:53.168Z,7.71
2022-11-03T18:04:19.395Z,7.74
2022-11-03T18:06:45.560Z,7.75
2022-11-03T18:09:11.668Z,7.75
2022-11-03T18:12:18.583Z,7.77
2022-11-03T18:14:44.677Z,7.77
2022-11-03T18:17:10.810Z,7.77
2022-11-03T18:19:36.912Z,7.77
2022-11-03T18:22:03.254Z,7.79
2022-11-03T18:24:29.374Z,7.76
2022-11-03T18:26:55.543Z,7.75
2022-11-03T18:29:21.646Z,7.78
2022-11-03T18:31:50.491Z,7.81
2022-11-03T18:34:24.021Z,7.81
2022-11-03T18:36:50.401Z,7.83
2022-11-03T18:39:23.113Z,7.83
2022-11-03T18:41:49.255Z,7.82
2022-11-03T18:44:25.195Z,7.84
2022-11-03T18:46:53.085Z,7.85
2022-11-03T18:49:19.798Z,7.87
2022-11-03T18:52:02.894Z,7.95
2022-11-03T18:54:31.499Z,7.97
2022-11-03T18:56:58.122Z,7.98
2022-11-03T18:59:37.674Z,8.00
2022-11-03T19:02:15.089Z,8.00
2022-11-03T19:04:41.268Z,8.02
2022-11-03T19:07:11.667Z,8.08
2022-11-03T19:09:37.819Z,8.09
2022-11-03T19:12:04.195Z,8.15
2022-11-03T19:14:33.180Z,8.17
2022-11-03T19:17:21.808Z,8.23
2022-11-03T19:19:47.928Z,8.22
2022-11-03T19:22:20.579Z,8.23
2022-11-03T19:24:46.969Z,8.24
2022-11-03T19:27:27.351Z,8.24
2022-11-03T19:29:54.653Z,8.24
2022-11-03T19:32:32.826Z,8.28
2022-11-03T19:35:14.637Z,8.30
2022-11-03T19:37:40.836Z,8.29
2022-11-03T19:40:09.302Z,8.33
2022-11-03T19:42:37.114Z,8.36
2022-11-03T19:45:07.689Z,8.35
2022-11-03T19:47:47.863Z,8.35
2022-11-03T19:50:26.365Z,8.33
2022-11-03T19:53:02.599Z,8.29
2022-11-03T19:55:32.496Z,8.31
2022-11-03T19:58:12.444Z,8.28
2022-11-03T20:00:38.545Z,8.32
2022-11-03T20:03:04.750Z,8.30
2022-11-03T20:05:31.342Z,8.30
2022-11-03T20:08:03.591Z,8.28
2022-11-03T20:10:31.869Z,8.24
2022-11-03T20:13:01.615Z,8.25
2022-11-03T20:15:27.718Z,8.18
2022-11-03T20:17:54.197Z,8.14
2022-11-03T20:20:26.554Z,8.08
2022-11-03T20:22:55.704Z,8.00
2022-11-03T20:25:27.993Z,7.94
2022-11-03T20:27:56.230Z,7.90
2022-11-03T20:30:23.915Z,7.82
2022-11-03T20:32:51.071Z,7.80
2022-11-03T20:35:23.036Z,7.76
2022-11-03T20:37:53.272Z,7.75
2022-11-03T20:40:22.703Z,7.74
2022-11-03T20:42:55.441Z,7.70
2022-11-03T20:45:23.252Z,7.70
2022-11-03T20:47:50.112Z,7.67
2022-11-03T20:50:20.818Z,7.67
2022-11-03T20:52:48.140Z,7.67
2022-11-03T20:55:20.064Z,7.65
2022-11-03T20:57:47.161Z,7.65
2022-11-03T21:00:21.764Z,7.66
2022-11-03T21:02:49.580Z,7.64
2022-11-03T21:05:27.144Z,7.64
2022-11-03T21:07:55.083Z,7.58
2022-11-03T21:10:23.246Z,7.55
2022-11-03T21:12:49.817Z,7.50
2022-11-03T21:15:48.160Z,7.50
2022-11-03T21:18:42.396Z,7.49
2022-11-03T21:21:11.157Z,7.50
2022-11-03T21:23:37.618Z,7.52
2022-11-03T21:26:03.827Z,7.49
2022-11-03T21:28:30.086Z,7.45
2022-11-03T21:30:56.810Z,7.43
2022-11-03T21:33:23.691Z,7.38
2022-11-03T21:35:50.659Z,7.33
2022-11-03T21:38:17.847Z,7.27
2022-11-03T21:40:56.321Z,7.20
2022-11-03T21:43:41.429Z,7.15
2022-11-03T21:46:09.632Z,7.08
2022-11-03T21:48:55.714Z,7.02
2022-11-03T21:51:22.331Z,6.94
2022-11-03T21:53:49.144Z,6.85
2022-11-03T21:56:16.002Z,6.77
2022-11-03T21:58:42.791Z,6.70
2022-11-03T22:01:09.733Z,6.64
2022-11-03T22:03:37.167Z,6.59
2022-11-03T22:06:08.649Z,6.55
2022-11-03T22:08:35.748Z,6.48
2022-11-03T22:11:21.345Z,6.48
2022-11-03T22:13:54.220Z,6.50
2022-11-03T22:16:39.487Z,6.55
2022-11-03T22:19:38.410Z,6.55
2022-11-03T22:22:33.875Z,6.61
2022-11-03T22:25:19.095Z,6.68
2022-11-03T22:27:45.393Z,6.77
2022-11-03T22:30:30.337Z,6.83
2022-11-03T22:32:57.893Z,6.87
2022-11-03T22:35:43.812Z,6.91
2022-11-03T22:38:14.097Z,6.96
2022-11-03T22:41:00.141Z,6.99
2022-11-03T22:43:45.191Z,7.02
2022-11-03T22:46:13.131Z,7.05
2022-11-03T22:48:39.881Z,7.07
2022-11-03T22:51:06.085Z,7.11
2022-11-03T22:53:52.713Z,7.15
2022-11-03T22:56:19.988Z,7.14
2022-11-03T22:58:46.190Z,7.14
2022-11-03T23:01:15.610Z,7.16
2022-11-03T23:03:44.461Z,7.14
2022-11-03T23:06:13.642Z,7.13
2022-11-03T23:08:42.418Z,7.11
2022-11-03T23:11:20.706Z,7.09
2022-11-03T23:13:52.281Z,7.09
2022-11-03T23:16:21.122Z,7.07
2022-11-03T23:19:06.571Z,7.05
2022-11-03T23:21:34.142Z,7.02
2022-11-03T23:24:19.061Z,7.01
2022-11-03T23:26:45.879Z,7.01
2022-11-03T23:29:13.520Z,7.01
2022-11-03T23:31:41.169Z,7.00
2022-11-03T23:34:08.974Z,6.99
2022-11-03T23:36:35.327Z,6.99
2022-11-03T23:39:02.169Z,6.99
2022-11-03T23:41:28.977Z,6.96
2022-11-03T23:43:56.180Z,6.94
2022-11-03T23:46:43.515Z,6.90
2022-11-03T23:49:10.214Z,6.88
2022-11-03T23:51:37.127Z,6.87
2022-11-03T23:54:05.120Z,6.84
2022-11-03T23:56:53.980Z,6.80
2022-11-03T23:59:20.463Z,6.77
